sensor_id;sensor_type;location;lat;lon;timestamp;temperature;humidity
47168;DHT22;32931;47.778;17.806;2023-06-01T00:00:00;20.30;84.20
47168;DHT22;32931;47.778;17.806;2023-06-01T00:02:26;20.30;84.20
47168;DHT22;32931;47.778;17.806;2023-06-01T00:04:53;20.30;84.30
47168;DHT22;32931;47.778;17.806;2023-06-01T00:07:19;20.30;84.30
47168;DHT22;32931;47.778;17.806;2023-06-01T00:09:46;20.40;85.00
47168;DHT22;32931;47.778;17.806;2023-06-01T00:12:12;20.40;85.20
47168;DHT22;32931;47.778;17.806;2023-06-01T00:14:39;20.30;85.70
47168;DHT22;32931;47.778;17.806;2023-06-01T00:17:05;20.30;86.40
47168;DHT22;32931;47.778;17.806;2023-06-01T00:19:33;20.30;86.60
47168;DHT22;32931;47.778;17.806;2023-06-01T00:22:00;20.30;86.90
47168;DHT22;32931;47.778;17.806;2023-06-01T00:24:26;20.20;86.90
47168;DHT22;32931;47.778;17.806;2023-06-01T00:26:53;20.20;86.70
47168;DHT22;32931;47.778;17.806;2023-06-01T00:29:19;20.10;86.40
47168;DHT22;32931;47.778;17.806;2023-06-01T00:31:45;20.10;86.50
47168;DHT22;32931;47.778;17.806;2023-06-01T00:34:12;20.00;86.80
47168;DHT22;32931;47.778;17.806;2023-06-01T00:36:38;20.00;87.80
47168;DHT22;32931;47.778;17.806;2023-06-01T00:39:04;20.00;88.80
47168;DHT22;32931;47.778;17.806;2023-06-01T00:41:31;19.90;88.10
47168;DHT22;32931;47.778;17.806;2023-06-01T00:43:58;19.90;87.70
47168;DHT22;32931;47.778;17.806;2023-06-01T00:46:24;19.80;87.00
47168;DHT22;32931;47.778;17.806;2023-06-01T00:48:51;19.70;87.30
47168;DHT22;32931;47.778;17.806;2023-06-01T00:51:18;19.60;87.80
47168;DHT22;32931;47.778;17.806;2023-06-01T00:53:44;19.50;87.90
47168;DHT22;32931;47.778;17.806;2023-06-01T00:56:11;19.40;88.20
47168;DHT22;32931;47.778;17.806;2023-06-01T00:58:40;19.40;88.60
47168;DHT22;32931;47.778;17.806;2023-06-01T01:01:07;19.30;88.90
47168;DHT22;32931;47.778;17.806;2023-06-01T01:03:34;19.30;88.80
47168;DHT22;32931;47.778;17.806;2023-06-01T01:06:12;19.20;89.10
47168;DHT22;32931;47.778;17.806;2023-06-01T01:08:46;19.20;89.50
47168;DHT22;32931;47.778;17.806;2023-06-01T01:11:20;19.20;89.90
47168;DHT22;32931;47.778;17.806;2023-06-01T01:14:01;19.20;90.10
47168;DHT22;32931;47.778;17.806;2023-06-01T01:16:39;19.20;90.20
47168;DHT22;32931;47.778;17.806;2023-06-01T01:30:14;19.30;90.70
47168;DHT22;32931;47.778;17.806;2023-06-01T01:32:42;19.30;90.50
47168;DHT22;32931;47.778;17.806;2023-06-01T01:35:09;19.20;90.30
47168;DHT22;32931;47.778;17.806;2023-06-01T01:37:36;19.10;90.30
47168;DHT22;32931;47.778;17.806;2023-06-01T01:40:02;19.00;90.30
47168;DHT22;32931;47.778;17.806;2023-06-01T01:42:29;18.90;90.30
47168;DHT22;32931;47.778;17.806;2023-06-01T01:44:55;18.80;90.50
47168;DHT22;32931;47.778;17.806;2023-06-01T01:47:31;18.80;90.60
47168;DHT22;32931;47.778;17.806;2023-06-01T01:50:02;18.70;90.80
47168;DHT22;32931;47.778;17.806;2023-06-01T01:52:38;18.60;90.80
47168;DHT22;32931;47.778;17.806;2023-06-01T01:55:09;18.50;90.80
47168;DHT22;32931;47.778;17.806;2023-06-01T01:57:35;18.50;91.00
47168;DHT22;32931;47.778;17.806;2023-06-01T02:00:03;18.40;91.20
47168;DHT22;32931;47.778;17.806;2023-06-01T02:02:31;18.40;91.50
47168;DHT22;32931;47.778;17.806;2023-06-01T02:04:57;18.30;91.70
47168;DHT22;32931;47.778;17.806;2023-06-01T02:07:24;18.30;91.90
47168;DHT22;32931;47.778;17.806;2023-06-01T02:09:50;18.30;92.00
47168;DHT22;32931;47.778;17.806;2023-06-01T02:12:16;18.30;92.00
47168;DHT22;32931;47.778;17.806;2023-06-01T02:14:42;18.30;92.00
47168;DHT22;32931;47.778;17.806;2023-06-01T02:17:08;18.20;92.20
47168;DHT22;32931;47.778;17.806;2023-06-01T02:19:35;18.20;92.40
47168;DHT22;32931;47.778;17.806;2023-06-01T02:22:01;18.20;92.50
47168;DHT22;32931;47.778;17.806;2023-06-01T02:24:27;18.20;92.50
47168;DHT22;32931;47.778;17.806;2023-06-01T02:26:53;18.10;92.50
47168;DHT22;32931;47.778;17.806;2023-06-01T02:29:21;18.10;92.60
47168;DHT22;32931;47.778;17.806;2023-06-01T02:31:49;18.10;93.20
47168;DHT22;32931;47.778;17.806;2023-06-01T02:34:17;18.20;93.40
47168;DHT22;32931;47.778;17.806;2023-06-01T02:36:43;18.20;93.10
47168;DHT22;32931;47.778;17.806;2023-06-01T02:39:09;18.20;93.50
47168;DHT22;32931;47.778;17.806;2023-06-01T02:41:35;18.30;93.60
47168;DHT22;32931;47.778;17.806;2023-06-01T02:44:01;18.30;93.70
47168;DHT22;32931;47.778;17.806;2023-06-01T02:46:28;18.30;93.90
47168;DHT22;32931;47.778;17.806;2023-06-01T02:48:54;18.30;93.40
47168;DHT22;32931;47.778;17.806;2023-06-01T02:51:21;18.30;93.40
47168;DHT22;32931;47.778;17.806;2023-06-01T02:53:47;18.30;93.60
47168;DHT22;32931;47.778;17.806;2023-06-01T02:56:13;18.30;93.50
47168;DHT22;32931;47.778;17.806;2023-06-01T02:58:40;18.20;93.60
47168;DHT22;32931;47.778;17.806;2023-06-01T03:01:07;18.20;93.50
47168;DHT22;32931;47.778;17.806;2023-06-01T03:03:38;18.10;93.60
47168;DHT22;32931;47.778;17.806;2023-06-01T03:06:04;18.10;93.60
47168;DHT22;32931;47.778;17.806;2023-06-01T03:08:32;18.10;93.70
47168;DHT22;32931;47.778;17.806;2023-06-01T03:11:00;18.00;93.70
47168;DHT22;32931;47.778;17.806;2023-06-01T03:13:26;18.00;93.80
47168;DHT22;32931;47.778;17.806;2023-06-01T03:15:52;17.90;93.90
47168;DHT22;32931;47.778;17.806;2023-06-01T03:18:18;17.80;94.00
47168;DHT22;32931;47.778;17.806;2023-06-01T03:20:44;17.80;94.20
47168;DHT22;32931;47.778;17.806;2023-06-01T03:23:13;17.80;94.70
47168;DHT22;32931;47.778;17.806;2023-06-01T03:25:39;17.80;95.10
47168;DHT22;32931;47.778;17.806;2023-06-01T03:28:05;17.90;94.70
47168;DHT22;32931;47.778;17.806;2023-06-01T03:30:31;17.90;94.50
47168;DHT22;32931;47.778;17.806;2023-06-01T03:32:58;17.80;94.60
47168;DHT22;32931;47.778;17.806;2023-06-01T03:35:24;17.80;94.80
47168;DHT22;32931;47.778;17.806;2023-06-01T03:37:50;17.80;95.00
47168;DHT22;32931;47.778;17.806;2023-06-01T03:40:16;17.80;95.10
47168;DHT22;32931;47.778;17.806;2023-06-01T03:42:44;17.80;95.20
47168;DHT22;32931;47.778;17.806;2023-06-01T03:45:12;17.70;95.20
47168;DHT22;32931;47.778;17.806;2023-06-01T03:47:38;17.70;95.30
47168;DHT22;32931;47.778;17.806;2023-06-01T03:50:06;17.70;95.30
47168;DHT22;32931;47.778;17.806;2023-06-01T03:52:34;17.70;95.30
47168;DHT22;32931;47.778;17.806;2023-06-01T03:55:01;17.60;95.30
47168;DHT22;32931;47.778;17.806;2023-06-01T03:57:28;17.60;95.70
47168;DHT22;32931;47.778;17.806;2023-06-01T03:59:54;17.50;96.00
47168;DHT22;32931;47.778;17.806;2023-06-01T04:02:20;17.60;96.50
47168;DHT22;32931;47.778;17.806;2023-06-01T04:04:48;17.60;97.00
47168;DHT22;32931;47.778;17.806;2023-06-01T04:07:15;17.70;97.20
47168;DHT22;32931;47.778;17.806;2023-06-01T04:09:45;17.70;97.00
47168;DHT22;32931;47.778;17.806;2023-06-01T04:12:13;17.80;97.00
47168;DHT22;32931;47.778;17.806;2023-06-01T04:14:40;17.80;96.90
47168;DHT22;32931;47.778;17.806;2023-06-01T04:17:06;17.80;96.80
47168;DHT22;32931;47.778;17.806;2023-06-01T04:19:34;17.80;96.90
47168;DHT22;32931;47.778;17.806;2023-06-01T04:22:00;17.90;97.40
47168;DHT22;32931;47.778;17.806;2023-06-01T04:24:27;18.00;97.20
47168;DHT22;32931;47.778;17.806;2023-06-01T04:26:53;18.00;97.10
47168;DHT22;32931;47.778;17.806;2023-06-01T04:29:19;18.10;97.10
47168;DHT22;32931;47.778;17.806;2023-06-01T04:31:47;18.10;97.10
47168;DHT22;32931;47.778;17.806;2023-06-01T04:34:13;18.20;97.30
47168;DHT22;32931;47.778;17.806;2023-06-01T04:36:39;18.20;97.30
47168;DHT22;32931;47.778;17.806;2023-06-01T04:39:06;18.30;97.00
47168;DHT22;32931;47.778;17.806;2023-06-01T04:41:34;18.30;97.40
47168;DHT22;32931;47.778;17.806;2023-06-01T04:44:03;18.30;97.00
47168;DHT22;32931;47.778;17.806;2023-06-01T04:46:33;18.40;96.70
47168;DHT22;32931;47.778;17.806;2023-06-01T04:49:01;18.40;96.20
47168;DHT22;32931;47.778;17.806;2023-06-01T04:51:27;18.50;96.10
47168;DHT22;32931;47.778;17.806;2023-06-01T04:53:55;18.40;96.00
47168;DHT22;32931;47.778;17.806;2023-06-01T04:56:23;18.50;95.90
47168;DHT22;32931;47.778;17.806;2023-06-01T04:58:51;18.40;95.50
47168;DHT22;32931;47.778;17.806;2023-06-01T05:01:17;18.40;95.20
47168;DHT22;32931;47.778;17.806;2023-06-01T05:03:44;18.50;95.20
47168;DHT22;32931;47.778;17.806;2023-06-01T05:06:12;18.40;95.50
47168;DHT22;32931;47.778;17.806;2023-06-01T05:08:41;18.50;95.70
47168;DHT22;32931;47.778;17.806;2023-06-01T05:11:09;18.50;95.60
47168;DHT22;32931;47.778;17.806;2023-06-01T05:13:36;18.40;95.60
47168;DHT22;32931;47.778;17.806;2023-06-01T05:16:03;18.50;95.50
47168;DHT22;32931;47.778;17.806;2023-06-01T05:18:29;18.50;95.30
47168;DHT22;32931;47.778;17.806;2023-06-01T05:20:56;18.50;95.00
47168;DHT22;32931;47.778;17.806;2023-06-01T05:23:22;18.50;94.90
47168;DHT22;32931;47.778;17.806;2023-06-01T05:25:48;18.50;94.90
47168;DHT22;32931;47.778;17.806;2023-06-01T05:28:15;18.60;95.30
47168;DHT22;32931;47.778;17.806;2023-06-01T05:30:41;18.60;95.50
47168;DHT22;32931;47.778;17.806;2023-06-01T05:33:07;18.70;95.30
47168;DHT22;32931;47.778;17.806;2023-06-01T05:35:34;18.70;94.80
47168;DHT22;32931;47.778;17.806;2023-06-01T05:38:01;18.70;94.30
47168;DHT22;32931;47.778;17.806;2023-06-01T05:40:27;18.80;94.30
47168;DHT22;32931;47.778;17.806;2023-06-01T05:42:53;18.80;93.80
47168;DHT22;32931;47.778;17.806;2023-06-01T05:45:20;18.90;93.80
47168;DHT22;32931;47.778;17.806;2023-06-01T05:47:46;18.90;93.90
47168;DHT22;32931;47.778;17.806;2023-06-01T05:50:13;19.00;94.10
47168;DHT22;32931;47.778;17.806;2023-06-01T05:52:39;19.00;94.00
47168;DHT22;32931;47.778;17.806;2023-06-01T05:55:08;19.10;93.50
47168;DHT22;32931;47.778;17.806;2023-06-01T05:57:34;19.20;93.30
47168;DHT22;32931;47.778;17.806;2023-06-01T06:00:00;19.20;92.80
47168;DHT22;32931;47.778;17.806;2023-06-01T06:02:26;19.30;92.60
47168;DHT22;32931;47.778;17.806;2023-06-01T06:04:52;19.40;92.80
47168;DHT22;32931;47.778;17.806;2023-06-01T06:07:19;19.40;92.90
47168;DHT22;32931;47.778;17.806;2023-06-01T06:09:45;19.50;93.30
47168;DHT22;32931;47.778;17.806;2023-06-01T06:12:11;19.60;93.10
47168;DHT22;32931;47.778;17.806;2023-06-01T06:14:37;19.60;92.90
47168;DHT22;32931;47.778;17.806;2023-06-01T06:17:03;19.70;93.00
47168;DHT22;32931;47.778;17.806;2023-06-01T06:19:30;19.80;93.10
47168;DHT22;32931;47.778;17.806;2023-06-01T06:21:56;19.90;93.30
47168;DHT22;32931;47.778;17.806;2023-06-01T06:24:22;19.90;93.10
47168;DHT22;32931;47.778;17.806;2023-06-01T06:26:49;20.00;93.00
47168;DHT22;32931;47.778;17.806;2023-06-01T06:29:15;20.10;93.30
47168;DHT22;32931;47.778;17.806;2023-06-01T06:31:41;20.10;93.20
47168;DHT22;32931;47.778;17.806;2023-06-01T06:34:09;20.20;93.20
47168;DHT22;32931;47.778;17.806;2023-06-01T06:36:36;20.30;93.10
47168;DHT22;32931;47.778;17.806;2023-06-01T06:39:03;20.40;92.70
47168;DHT22;32931;47.778;17.806;2023-06-01T06:41:29;20.40;92.70
47168;DHT22;32931;47.778;17.806;2023-06-01T06:43:55;20.50;92.80
47168;DHT22;32931;47.778;17.806;2023-06-01T06:46:23;20.50;92.80
47168;DHT22;32931;47.778;17.806;2023-06-01T06:48:49;20.60;92.60
47168;DHT22;32931;47.778;17.806;2023-06-01T06:51:15;20.70;92.70
47168;DHT22;32931;47.778;17.806;2023-06-01T06:53:41;20.80;92.70
47168;DHT22;32931;47.778;17.806;2023-06-01T06:56:08;20.90;92.60
47168;DHT22;32931;47.778;17.806;2023-06-01T06:58:34;20.90;92.50
47168;DHT22;32931;47.778;17.806;2023-06-01T07:01:00;21.00;92.40
47168;DHT22;32931;47.778;17.806;2023-06-01T07:03:31;21.10;92.00
47168;DHT22;32931;47.778;17.806;2023-06-01T07:05:58;21.10;91.60
47168;DHT22;32931;47.778;17.806;2023-06-01T07:08:24;21.20;91.50
47168;DHT22;32931;47.778;17.806;2023-06-01T07:10:50;21.20;91.50
47168;DHT22;32931;47.778;17.806;2023-06-01T07:13:16;21.30;91.30
47168;DHT22;32931;47.778;17.806;2023-06-01T07:15:42;21.30;91.40
47168;DHT22;32931;47.778;17.806;2023-06-01T07:18:08;21.40;91.00
47168;DHT22;32931;47.778;17.806;2023-06-01T07:20:35;21.30;90.60
47168;DHT22;32931;47.778;17.806;2023-06-01T07:23:01;21.50;90.70
47168;DHT22;32931;47.778;17.806;2023-06-01T07:25:27;21.50;91.00
47168;DHT22;32931;47.778;17.806;2023-06-01T07:27:53;21.60;91.10
47168;DHT22;32931;47.778;17.806;2023-06-01T07:30:22;21.60;90.60
47168;DHT22;32931;47.778;17.806;2023-06-01T07:32:48;21.80;91.00
47168;DHT22;32931;47.778;17.806;2023-06-01T07:35:14;21.80;90.80
47168;DHT22;32931;47.778;17.806;2023-06-01T07:37:40;21.90;90.40
47168;DHT22;32931;47.778;17.806;2023-06-01T07:40:07;21.90;90.00
47168;DHT22;32931;47.778;17.806;2023-06-01T07:42:34;21.90;89.40
47168;DHT22;32931;47.778;17.806;2023-06-01T07:45:00;22.00;88.90
47168;DHT22;32931;47.778;17.806;2023-06-01T07:47:26;22.10;88.10
47168;DHT22;32931;47.778;17.806;2023-06-01T07:49:52;22.10;88.50
47168;DHT22;32931;47.778;17.806;2023-06-01T07:52:18;22.20;89.20
47168;DHT22;32931;47.778;17.806;2023-06-01T07:54:44;22.20;88.10
47168;DHT22;32931;47.778;17.806;2023-06-01T07:57:11;22.30;89.20
47168;DHT22;32931;47.778;17.806;2023-06-01T07:59:37;22.40;89.90
47168;DHT22;32931;47.778;17.806;2023-06-01T08:02:04;22.40;89.90
47168;DHT22;32931;47.778;17.806;2023-06-01T08:04:30;22.50;88.80
47168;DHT22;32931;47.778;17.806;2023-06-01T08:06:59;22.60;89.50
47168;DHT22;32931;47.778;17.806;2023-06-01T08:09:25;22.60;89.80
47168;DHT22;32931;47.778;17.806;2023-06-01T08:11:51;22.70;89.00
47168;DHT22;32931;47.778;17.806;2023-06-01T08:14:19;22.80;89.30
47168;DHT22;32931;47.778;17.806;2023-06-01T08:16:45;22.80;87.00
47168;DHT22;32931;47.778;17.806;2023-06-01T08:19:11;22.90;86.90
47168;DHT22;32931;47.778;17.806;2023-06-01T08:21:37;23.00;86.30
47168;DHT22;32931;47.778;17.806;2023-06-01T08:24:04;23.00;86.20
47168;DHT22;32931;47.778;17.806;2023-06-01T08:26:30;23.10;85.70
47168;DHT22;32931;47.778;17.806;2023-06-01T08:28:56;23.20;84.70
47168;DHT22;32931;47.778;17.806;2023-06-01T08:31:24;23.20;84.50
47168;DHT22;32931;47.778;17.806;2023-06-01T08:33:51;23.30;85.40
47168;DHT22;32931;47.778;17.806;2023-06-01T08:36:19;23.30;87.20
47168;DHT22;32931;47.778;17.806;2023-06-01T08:38:45;23.40;85.30
47168;DHT22;32931;47.778;17.806;2023-06-01T08:41:24;23.50;86.70
47168;DHT22;32931;47.778;17.806;2023-06-01T08:43:58;23.50;85.80
47168;DHT22;32931;47.778;17.806;2023-06-01T08:46:25;23.60;85.70
47168;DHT22;32931;47.778;17.806;2023-06-01T08:48:53;23.60;84.30
47168;DHT22;32931;47.778;17.806;2023-06-01T08:51:24;23.70;83.90
47168;DHT22;32931;47.778;17.806;2023-06-01T08:53:53;23.70;83.70
47168;DHT22;32931;47.778;17.806;2023-06-01T08:56:21;23.80;82.60
47168;DHT22;32931;47.778;17.806;2023-06-01T08:58:51;23.90;82.20
47168;DHT22;32931;47.778;17.806;2023-06-01T09:01:18;23.90;81.10
47168;DHT22;32931;47.778;17.806;2023-06-01T09:03:48;24.00;81.00
47168;DHT22;32931;47.778;17.806;2023-06-01T09:06:14;24.10;80.30
47168;DHT22;32931;47.778;17.806;2023-06-01T09:08:41;24.10;77.10
47168;DHT22;32931;47.778;17.806;2023-06-01T09:11:07;24.20;76.20
47168;DHT22;32931;47.778;17.806;2023-06-01T09:13:35;24.20;77.70
47168;DHT22;32931;47.778;17.806;2023-06-01T09:16:02;24.30;79.00
47168;DHT22;32931;47.778;17.806;2023-06-01T09:18:29;24.30;78.40
47168;DHT22;32931;47.778;17.806;2023-06-01T09:21:12;24.40;78.30
47168;DHT22;32931;47.778;17.806;2023-06-01T09:23:38;24.40;78.00
47168;DHT22;32931;47.778;17.806;2023-06-01T09:26:06;24.40;78.10
47168;DHT22;32931;47.778;17.806;2023-06-01T09:28:54;24.50;76.00
47168;DHT22;32931;47.778;17.806;2023-06-01T09:31:37;24.60;76.00
47168;DHT22;32931;47.778;17.806;2023-06-01T09:34:04;24.60;74.80
47168;DHT22;32931;47.778;17.806;2023-06-01T09:36:31;24.60;74.20
47168;DHT22;32931;47.778;17.806;2023-06-01T09:39:05;24.70;76.00
47168;DHT22;32931;47.778;17.806;2023-06-01T09:44:11;24.80;76.00
47168;DHT22;32931;47.778;17.806;2023-06-01T09:47:10;24.80;76.40
47168;DHT22;32931;47.778;17.806;2023-06-01T09:49:43;24.90;75.40
47168;DHT22;32931;47.778;17.806;2023-06-01T09:52:14;25.00;75.40
47168;DHT22;32931;47.778;17.806;2023-06-01T09:54:49;25.00;76.20
47168;DHT22;32931;47.778;17.806;2023-06-01T09:57:26;25.10;75.80
47168;DHT22;32931;47.778;17.806;2023-06-01T09:59:55;25.20;75.70
47168;DHT22;32931;47.778;17.806;2023-06-01T10:02:23;25.20;74.10
47168;DHT22;32931;47.778;17.806;2023-06-01T10:04:50;25.30;75.20
47168;DHT22;32931;47.778;17.806;2023-06-01T10:07:18;25.30;74.40
47168;DHT22;32931;47.778;17.806;2023-06-01T10:09:48;25.40;73.90
47168;DHT22;32931;47.778;17.806;2023-06-01T10:12:15;25.40;73.70
47168;DHT22;32931;47.778;17.806;2023-06-01T10:14:42;25.50;73.90
47168;DHT22;32931;47.778;17.806;2023-06-01T10:17:08;25.60;74.40
47168;DHT22;32931;47.778;17.806;2023-06-01T10:19:38;25.70;73.70
47168;DHT22;32931;47.778;17.806;2023-06-01T10:22:05;25.70;72.50
47168;DHT22;32931;47.778;17.806;2023-06-01T10:24:33;25.80;73.10
47168;DHT22;32931;47.778;17.806;2023-06-01T10:27:22;25.70;70.20
47168;DHT22;32931;47.778;17.806;2023-06-01T10:29:52;25.80;68.60
47168;DHT22;32931;47.778;17.806;2023-06-01T10:35:04;25.90;67.60
47168;DHT22;32931;47.778;17.806;2023-06-01T10:37:30;26.00;71.50
47168;DHT22;32931;47.778;17.806;2023-06-01T10:42:42;26.20;69.60
47168;DHT22;32931;47.778;17.806;2023-06-01T10:45:38;26.20;72.50
47168;DHT22;32931;47.778;17.806;2023-06-01T10:48:11;26.30;72.00
47168;DHT22;32931;47.778;17.806;2023-06-01T10:50:39;26.30;71.50
47168;DHT22;32931;47.778;17.806;2023-06-01T10:53:35;26.40;72.80
47168;DHT22;32931;47.778;17.806;2023-06-01T10:56:24;26.50;72.50
47168;DHT22;32931;47.778;17.806;2023-06-01T11:01:41;26.80;70.00
47168;DHT22;32931;47.778;17.806;2023-06-01T11:04:08;26.80;69.80
47168;DHT22;32931;47.778;17.806;2023-06-01T11:06:39;26.90;69.70
47168;DHT22;32931;47.778;17.806;2023-06-01T11:09:07;26.80;67.40
47168;DHT22;32931;47.778;17.806;2023-06-01T11:14:22;27.10;69.10
47168;DHT22;32931;47.778;17.806;2023-06-01T11:16:50;27.10;69.40
47168;DHT22;32931;47.778;17.806;2023-06-01T11:19:22;27.20;69.30
47168;DHT22;32931;47.778;17.806;2023-06-01T11:21:59;27.30;70.40
47168;DHT22;32931;47.778;17.806;2023-06-01T11:24:37;27.40;69.10
47168;DHT22;32931;47.778;17.806;2023-06-01T11:27:10;27.30;65.30
47168;DHT22;32931;47.778;17.806;2023-06-01T11:29:37;27.30;66.30
47168;DHT22;32931;47.778;17.806;2023-06-01T11:32:04;27.30;69.00
47168;DHT22;32931;47.778;17.806;2023-06-01T11:34:36;27.50;69.00
47168;DHT22;32931;47.778;17.806;2023-06-01T11:37:18;27.50;66.40
47168;DHT22;32931;47.778;17.806;2023-06-01T11:39:45;27.60;65.50
47168;DHT22;32931;47.778;17.806;2023-06-01T11:42:13;27.60;66.60
47168;DHT22;32931;47.778;17.806;2023-06-01T11:44:44;27.70;66.80
47168;DHT22;32931;47.778;17.806;2023-06-01T11:47:12;27.80;67.00
47168;DHT22;32931;47.778;17.806;2023-06-01T11:49:49;27.90;69.10
47168;DHT22;32931;47.778;17.806;2023-06-01T11:52:17;28.00;67.80
47168;DHT22;32931;47.778;17.806;2023-06-01T11:54:44;28.20;68.80
47168;DHT22;32931;47.778;17.806;2023-06-01T11:57:10;28.20;65.80
47168;DHT22;32931;47.778;17.806;2023-06-01T12:02:17;28.40;65.20
47168;DHT22;32931;47.778;17.806;2023-06-01T12:05:03;28.60;67.10
47168;DHT22;32931;47.778;17.806;2023-06-01T12:07:48;28.70;68.00
47168;DHT22;32931;47.778;17.806;2023-06-01T12:10:16;28.90;67.00
47168;DHT22;32931;47.778;17.806;2023-06-01T12:12:43;28.90;66.70
47168;DHT22;32931;47.778;17.806;2023-06-01T12:15:11;28.90;66.50
47168;DHT22;32931;47.778;17.806;2023-06-01T12:17:48;28.80;65.90
47168;DHT22;32931;47.778;17.806;2023-06-01T12:20:31;29.00;66.20
47168;DHT22;32931;47.778;17.806;2023-06-01T12:22:59;29.10;65.30
47168;DHT22;32931;47.778;17.806;2023-06-01T12:25:26;29.20;65.40
47168;DHT22;32931;47.778;17.806;2023-06-01T12:28:03;29.20;63.60
47168;DHT22;32931;47.778;17.806;2023-06-01T12:30:30;29.40;65.80
47168;DHT22;32931;47.778;17.806;2023-06-01T12:32:57;29.50;66.00
47168;DHT22;32931;47.778;17.806;2023-06-01T12:35:23;29.70;66.00
47168;DHT22;32931;47.778;17.806;2023-06-01T12:38:06;29.90;64.70
47168;DHT22;32931;47.778;17.806;2023-06-01T12:40:33;29.90;62.70
47168;DHT22;32931;47.778;17.806;2023-06-01T12:43:00;29.90;63.70
47168;DHT22;32931;47.778;17.806;2023-06-01T12:45:37;30.10;63.70
47168;DHT22;32931;47.778;17.806;2023-06-01T12:48:05;30.10;65.30
47168;DHT22;32931;47.778;17.806;2023-06-01T12:50:31;30.20;63.40
47168;DHT22;32931;47.778;17.806;2023-06-01T12:52:57;30.20;63.10
47168;DHT22;32931;47.778;17.806;2023-06-01T12:55:23;30.30;62.90
47168;DHT22;32931;47.778;17.806;2023-06-01T12:57:54;30.30;62.80
47168;DHT22;32931;47.778;17.806;2023-06-01T13:00:21;30.60;61.10
47168;DHT22;32931;47.778;17.806;2023-06-01T13:02:47;30.70;60.60
47168;DHT22;32931;47.778;17.806;2023-06-01T13:05:16;30.80;60.00
47168;DHT22;32931;47.778;17.806;2023-06-01T13:07:43;31.00;61.20
47168;DHT22;32931;47.778;17.806;2023-06-01T13:10:12;31.40;60.90
47168;DHT22;32931;47.778;17.806;2023-06-01T13:12:38;31.60;61.40
47168;DHT22;32931;47.778;17.806;2023-06-01T13:15:07;31.60;61.10
47168;DHT22;32931;47.778;17.806;2023-06-01T13:17:33;31.70;61.40
47168;DHT22;32931;47.778;17.806;2023-06-01T13:19:59;31.60;60.20
47168;DHT22;32931;47.778;17.806;2023-06-01T13:22:25;31.40;59.60
47168;DHT22;32931;47.778;17.806;2023-06-01T13:24:52;31.40;61.10
47168;DHT22;32931;47.778;17.806;2023-06-01T13:27:18;31.50;60.90
47168;DHT22;32931;47.778;17.806;2023-06-01T13:29:44;31.70;61.70
47168;DHT22;32931;47.778;17.806;2023-06-01T13:32:10;32.00;61.60
47168;DHT22;32931;47.778;17.806;2023-06-01T13:34:37;32.00;60.70
47168;DHT22;32931;47.778;17.806;2023-06-01T13:37:03;32.10;59.80
47168;DHT22;32931;47.778;17.806;2023-06-01T13:39:30;32.20;57.80
47168;DHT22;32931;47.778;17.806;2023-06-01T13:41:56;32.20;57.90
47168;DHT22;32931;47.778;17.806;2023-06-01T13:44:22;32.30;58.90
47168;DHT22;32931;47.778;17.806;2023-06-01T13:46:49;32.50;58.50
47168;DHT22;32931;47.778;17.806;2023-06-01T13:49:15;32.60;58.00
47168;DHT22;32931;47.778;17.806;2023-06-01T13:51:41;32.90;59.00
47168;DHT22;32931;47.778;17.806;2023-06-01T13:54:07;33.40;58.40
47168;DHT22;32931;47.778;17.806;2023-06-01T13:56:34;33.70;58.20
47168;DHT22;32931;47.778;17.806;2023-06-01T13:59:00;33.60;56.90
47168;DHT22;32931;47.778;17.806;2023-06-01T14:01:26;33.70;58.20
47168;DHT22;32931;47.778;17.806;2023-06-01T14:03:53;33.70;56.70
47168;DHT22;32931;47.778;17.806;2023-06-01T14:06:19;33.70;56.70
47168;DHT22;32931;47.778;17.806;2023-06-01T14:08:46;33.90;57.50
47168;DHT22;32931;47.778;17.806;2023-06-01T14:11:12;34.20;57.70
47168;DHT22;32931;47.778;17.806;2023-06-01T14:13:38;34.30;56.90
47168;DHT22;32931;47.778;17.806;2023-06-01T14:16:04;34.40;57.20
47168;DHT22;32931;47.778;17.806;2023-06-01T14:18:31;34.30;56.70
47168;DHT22;32931;47.778;17.806;2023-06-01T14:20:57;34.40;56.20
47168;DHT22;32931;47.778;17.806;2023-06-01T14:23:25;34.30;55.50
47168;DHT22;32931;47.778;17.806;2023-06-01T14:25:51;34.10;55.60
47168;DHT22;32931;47.778;17.806;2023-06-01T14:28:17;34.10;55.00
47168;DHT22;32931;47.778;17.806;2023-06-01T14:30:44;34.10;55.30
47168;DHT22;32931;47.778;17.806;2023-06-01T14:33:10;34.30;55.80
47168;DHT22;32931;47.778;17.806;2023-06-01T14:35:36;34.40;54.30
47168;DHT22;32931;47.778;17.806;2023-06-01T14:38:02;34.60;55.00
47168;DHT22;32931;47.778;17.806;2023-06-01T14:40:29;34.70;54.60
47168;DHT22;32931;47.778;17.806;2023-06-01T14:42:55;34.70;54.10
47168;DHT22;32931;47.778;17.806;2023-06-01T14:45:21;34.90;54.40
47168;DHT22;32931;47.778;17.806;2023-06-01T14:47:49;35.10;55.00
47168;DHT22;32931;47.778;17.806;2023-06-01T14:50:15;35.30;53.90
47168;DHT22;32931;47.778;17.806;2023-06-01T14:52:41;35.40;54.10
47168;DHT22;32931;47.778;17.806;2023-06-01T14:55:07;35.30;53.30
47168;DHT22;32931;47.778;17.806;2023-06-01T14:57:34;35.30;53.80
47168;DHT22;32931;47.778;17.806;2023-06-01T15:00:00;35.30;53.80
47168;DHT22;32931;47.778;17.806;2023-06-01T15:02:26;35.30;53.20
47168;DHT22;32931;47.778;17.806;2023-06-01T15:04:52;35.20;52.30
47168;DHT22;32931;47.778;17.806;2023-06-01T15:07:18;35.10;52.50
47168;DHT22;32931;47.778;17.806;2023-06-01T15:09:44;35.10;53.30
47168;DHT22;32931;47.778;17.806;2023-06-01T15:12:10;35.20;53.20
47168;DHT22;32931;47.778;17.806;2023-06-01T15:14:37;35.20;54.00
47168;DHT22;32931;47.778;17.806;2023-06-01T15:17:03;35.20;53.90
47168;DHT22;32931;47.778;17.806;2023-06-01T15:19:29;35.20;53.40
47168;DHT22;32931;47.778;17.806;2023-06-01T15:21:55;35.20;52.70
47168;DHT22;32931;47.778;17.806;2023-06-01T15:24:21;35.20;52.80
47168;DHT22;32931;47.778;17.806;2023-06-01T15:26:47;35.30;53.20
47168;DHT22;32931;47.778;17.806;2023-06-01T15:29:13;35.50;53.30
47168;DHT22;32931;47.778;17.806;2023-06-01T15:31:40;35.50;53.20
47168;DHT22;32931;47.778;17.806;2023-06-01T15:34:07;35.90;52.60
47168;DHT22;32931;47.778;17.806;2023-06-01T15:36:35;36.10;53.00
47168;DHT22;32931;47.778;17.806;2023-06-01T15:39:02;36.20;51.70
47168;DHT22;32931;47.778;17.806;2023-06-01T15:41:30;36.40;51.00
47168;DHT22;32931;47.778;17.806;2023-06-01T15:43:56;36.50;51.50
47168;DHT22;32931;47.778;17.806;2023-06-01T15:46:22;36.60;51.30